sensor_id;sensor_type;location;lat;lon;timestamp;P1;durP1;ratioP1;P2;durP2;ratioP2
19848;SDS011;10085;51.120;6.956;2023-11-19T00:06:36;7.88;;;4.82;;
19848;SDS011;10085;51.120;6.956;2023-11-19T00:16:39;8.07;;;4.65;;
19848;SDS011;10085;51.120;6.956;2023-11-19T00:26:44;6.65;;;4.45;;
19848;SDS011;10085;51.120;6.956;2023-11-19T00:36:47;8.55;;;4.40;;
19848;SDS011;10085;51.120;6.956;2023-11-19T00:46:56;7.15;;;3.88;;
19848;SDS011;10085;51.120;6.956;2023-11-19T00:57:01;6.20;;;3.65;;
19848;SDS011;10085;51.120;6.956;2023-11-19T01:07:06;7.22;;;4.40;;
19848;SDS011;10085;51.120;6.956;2023-11-19T01:17:14;11.05;;;5.10;;
19848;SDS011;10085;51.120;6.956;2023-11-19T01:27:20;8.43;;;5.20;;
19848;SDS011;10085;51.120;6.956;2023-11-19T01:37:23;10.05;;;5.05;;
19848;SDS011;10085;51.120;6.956;2023-11-19T01:47:27;10.48;;;5.10;;
19848;SDS011;10085;51.120;6.956;2023-11-19T01:57:31;10.23;;;5.60;;
19848;SDS011;10085;51.120;6.956;2023-11-19T02:07:35;14.00;;;6.55;;
19848;SDS011;10085;51.120;6.956;2023-11-19T02:17:38;17.00;;;8.70;;
19848;SDS011;10085;51.120;6.956;2023-11-19T02:27:45;18.75;;;8.25;;
19848;SDS011;10085;51.120;6.956;2023-11-19T02:37:51;18.45;;;7.88;;
19848;SDS011;10085;51.120;6.956;2023-11-19T02:47:55;18.30;;;7.68;;
19848;SDS011;10085;51.120;6.956;2023-11-19T02:57:58;20.05;;;7.15;;
19848;SDS011;10085;51.120;6.956;2023-11-19T03:08:03;24.42;;;7.10;;
19848;SDS011;10085;51.120;6.956;2023-11-19T03:18:06;25.35;;;7.30;;
19848;SDS011;10085;51.120;6.956;2023-11-19T03:28:10;18.00;;;6.15;;
19848;SDS011;10085;51.120;6.956;2023-11-19T03:38:13;17.98;;;5.95;;
19848;SDS011;10085;51.120;6.956;2023-11-19T03:48:18;18.08;;;5.57;;
19848;SDS011;10085;51.120;6.956;2023-11-19T03:58:21;18.02;;;5.65;;
19848;SDS011;10085;51.120;6.956;2023-11-19T04:08:25;25.88;;;6.18;;
19848;SDS011;10085;51.120;6.956;2023-11-19T04:18:28;25.20;;;4.95;;
19848;SDS011;10085;51.120;6.956;2023-11-19T04:28:32;27.67;;;4.78;;
19848;SDS011;10085;51.120;6.956;2023-11-19T04:38:35;33.58;;;5.68;;
19848;SDS011;10085;51.120;6.956;2023-11-19T04:48:41;25.80;;;6.00;;
19848;SDS011;10085;51.120;6.956;2023-11-19T04:58:44;23.88;;;5.43;;
19848;SDS011;10085;51.120;6.956;2023-11-19T05:08:48;26.08;;;4.00;;
19848;SDS011;10085;51.120;6.956;2023-11-19T05:18:51;19.67;;;4.80;;
19848;SDS011;10085;51.120;6.956;2023-11-19T05:28:55;20.80;;;4.50;;
19848;SDS011;10085;51.120;6.956;2023-11-19T05:38:58;33.08;;;4.97;;
19848;SDS011;10085;51.120;6.956;2023-11-19T05:49:02;24.55;;;4.93;;
19848;SDS011;10085;51.120;6.956;2023-11-19T05:59:06;22.55;;;3.50;;
19848;SDS011;10085;51.120;6.956;2023-11-19T06:09:17;15.70;;;3.08;;
19848;SDS011;10085;51.120;6.956;2023-11-19T06:19:20;13.55;;;3.17;;
19848;SDS011;10085;51.120;6.956;2023-11-19T06:29:30;15.93;;;2.63;;
19848;SDS011;10085;51.120;6.956;2023-11-19T06:39:33;21.90;;;3.28;;
19848;SDS011;10085;51.120;6.956;2023-11-19T06:49:38;24.45;;;3.80;;
19848;SDS011;10085;51.120;6.956;2023-11-19T06:59:41;20.63;;;3.20;;
19848;SDS011;10085;51.120;6.956;2023-11-19T07:09:45;10.85;;;2.53;;
19848;SDS011;10085;51.120;6.956;2023-11-19T07:19:49;24.67;;;3.63;;
19848;SDS011;10085;51.120;6.956;2023-11-19T07:29:53;14.10;;;3.03;;
19848;SDS011;10085;51.120;6.956;2023-11-19T07:39:56;23.33;;;3.72;;
19848;SDS011;10085;51.120;6.956;2023-11-19T07:50:00;22.05;;;3.67;;
19848;SDS011;10085;51.120;6.956;2023-11-19T08:00:04;24.10;;;3.65;;
19848;SDS011;10085;51.120;6.956;2023-11-19T08:10:14;23.33;;;3.50;;
19848;SDS011;10085;51.120;6.956;2023-11-19T08:20:17;22.77;;;5.15;;
19848;SDS011;10085;51.120;6.956;2023-11-19T08:30:21;24.33;;;3.33;;
19848;SDS011;10085;51.120;6.956;2023-11-19T08:40:24;20.75;;;3.03;;
19848;SDS011;10085;51.120;6.956;2023-11-19T08:50:28;16.25;;;2.78;;
19848;SDS011;10085;51.120;6.956;2023-11-19T09:00:31;19.05;;;2.92;;
19848;SDS011;10085;51.120;6.956;2023-11-19T09:10:36;15.02;;;2.60;;
19848;SDS011;10085;51.120;6.956;2023-11-19T09:20:38;17.67;;;3.15;;
19848;SDS011;10085;51.120;6.956;2023-11-19T09:30:43;16.40;;;2.80;;
19848;SDS011;10085;51.120;6.956;2023-11-19T09:40:46;13.80;;;2.50;;
19848;SDS011;10085;51.120;6.956;2023-11-19T09:50:50;18.85;;;2.92;;
19848;SDS011;10085;51.120;6.956;2023-11-19T10:00:54;17.40;;;2.88;;
19848;SDS011;10085;51.120;6.956;2023-11-19T10:11:21;18.20;;;2.35;;
19848;SDS011;10085;51.120;6.956;2023-11-19T10:21:24;12.05;;;2.33;;
19848;SDS011;10085;51.120;6.956;2023-11-19T10:31:30;15.07;;;2.97;;
19848;SDS011;10085;51.120;6.956;2023-11-19T10:41:33;20.08;;;2.63;;
19848;SDS011;10085;51.120;6.956;2023-11-19T10:51:37;18.10;;;2.03;;
19848;SDS011;10085;51.120;6.956;2023-11-19T11:01:46;12.50;;;2.60;;
19848;SDS011;10085;51.120;6.956;2023-11-19T11:11:52;10.95;;;1.80;;
19848;SDS011;10085;51.120;6.956;2023-11-19T11:21:55;13.95;;;2.88;;
19848;SDS011;10085;51.120;6.956;2023-11-19T11:32:02;28.88;;;7.75;;
19848;SDS011;10085;51.120;6.956;2023-11-19T11:42:30;11.13;;;2.47;;
19848;SDS011;10085;51.120;6.956;2023-11-19T11:52:36;11.57;;;2.42;;
19848;SDS011;10085;51.120;6.956;2023-11-19T12:03:18;10.75;;;1.88;;
19848;SDS011;10085;51.120;6.956;2023-11-19T12:13:24;17.42;;;4.07;;
19848;SDS011;10085;51.120;6.956;2023-11-19T12:23:32;7.85;;;2.30;;
19848;SDS011;10085;51.120;6.956;2023-11-19T12:33:36;14.52;;;2.30;;
19848;SDS011;10085;51.120;6.956;2023-11-19T12:43:40;15.40;;;2.22;;
19848;SDS011;10085;51.120;6.956;2023-11-19T12:53:48;15.70;;;2.75;;
19848;SDS011;10085;51.120;6.956;2023-11-19T13:03:54;13.02;;;2.40;;
19848;SDS011;10085;51.120;6.956;2023-11-19T13:13:59;8.93;;;2.10;;
19848;SDS011;10085;51.120;6.956;2023-11-19T13:24:04;16.83;;;4.50;;
19848;SDS011;10085;51.120;6.956;2023-11-19T13:34:09;8.25;;;1.67;;
19848;SDS011;10085;51.120;6.956;2023-11-19T13:44:12;13.90;;;2.35;;
19848;SDS011;10085;51.120;6.956;2023-11-19T13:54:16;13.48;;;2.45;;
19848;SDS011;10085;51.120;6.956;2023-11-19T14:04:21;12.02;;;2.08;;
19848;SDS011;10085;51.120;6.956;2023-11-19T14:14:25;12.65;;;2.70;;
19848;SDS011;10085;51.120;6.956;2023-11-19T14:24:28;16.92;;;2.88;;
19848;SDS011;10085;51.120;6.956;2023-11-19T14:34:32;16.42;;;2.88;;
19848;SDS011;10085;51.120;6.956;2023-11-19T14:44:35;16.40;;;3.40;;
19848;SDS011;10085;51.120;6.956;2023-11-19T14:54:39;11.55;;;2.53;;
19848;SDS011;10085;51.120;6.956;2023-11-19T15:04:42;14.90;;;2.70;;
19848;SDS011;10085;51.120;6.956;2023-11-19T15:14:48;11.98;;;2.28;;
19848;SDS011;10085;51.120;6.956;2023-11-19T15:24:51;13.07;;;2.75;;
19848;SDS011;10085;51.120;6.956;2023-11-19T15:34:55;13.25;;;2.30;;
19848;SDS011;10085;51.120;6.956;2023-11-19T15:44:58;9.50;;;2.45;;
19848;SDS011;10085;51.120;6.956;2023-11-19T15:55:02;9.80;;;2.10;;
19848;SDS011;10085;51.120;6.956;2023-11-19T16:05:06;11.05;;;2.40;;
19848;SDS011;10085;51.120;6.956;2023-11-19T16:15:15;7.72;;;1.88;;
19848;SDS011;10085;51.120;6.956;2023-11-19T16:25:37;10.65;;;1.90;;
19848;SDS011;10085;51.120;6.956;2023-11-19T16:35:42;11.00;;;2.75;;
19848;SDS011;10085;51.120;6.956;2023-11-19T16:45:45;9.98;;;1.90;;
19848;SDS011;10085;51.120;6.956;2023-11-19T16:55:49;10.15;;;2.03;;
19848;SDS011;10085;51.120;6.956;2023-11-19T17:05:52;16.33;;;3.05;;
19848;SDS011;10085;51.120;6.956;2023-11-19T17:15:56;11.88;;;3.05;;
19848;SDS011;10085;51.120;6.956;2023-11-19T17:25:59;17.80;;;5.07;;
19848;SDS011;10085;51.120;6.956;2023-11-19T17:36:05;10.20;;;2.55;;
19848;SDS011;10085;51.120;6.956;2023-11-19T17:46:08;12.63;;;2.70;;
19848;SDS011;10085;51.120;6.956;2023-11-19T17:56:13;21.40;;;3.03;;
19848;SDS011;10085;51.120;6.956;2023-11-19T18:06:16;11.75;;;2.38;;
19848;SDS011;10085;51.120;6.956;2023-11-19T18:16:21;9.60;;;2.58;;
19848;SDS011;10085;51.120;6.956;2023-11-19T18:26:25;16.38;;;2.75;;
19848;SDS011;10085;51.120;6.956;2023-11-19T18:36:46;14.52;;;2.90;;
19848;SDS011;10085;51.120;6.956;2023-11-19T18:46:49;9.57;;;2.22;;
19848;SDS011;10085;51.120;6.956;2023-11-19T18:56:54;11.48;;;2.67;;
19848;SDS011;10085;51.120;6.956;2023-11-19T19:06:58;13.18;;;2.78;;
19848;SDS011;10085;51.120;6.956;2023-11-19T19:17:04;11.63;;;2.63;;
19848;SDS011;10085;51.120;6.956;2023-11-19T19:27:09;6.28;;;1.77;;
19848;SDS011;10085;51.120;6.956;2023-11-19T19:37:14;10.27;;;2.33;;
19848;SDS011;10085;51.120;6.956;2023-11-19T19:47:17;9.80;;;2.40;;
19848;SDS011;10085;51.120;6.956;2023-11-19T19:57:22;9.25;;;2.88;;
19848;SDS011;10085;51.120;6.956;2023-11-19T20:07:25;11.27;;;2.72;;
19848;SDS011;10085;51.120;6.956;2023-11-19T20:17:29;10.13;;;2.92;;
19848;SDS011;10085;51.120;6.956;2023-11-19T20:27:32;9.57;;;2.50;;
19848;SDS011;10085;51.120;6.956;2023-11-19T20:37:36;12.75;;;3.50;;
19848;SDS011;10085;51.120;6.956;2023-11-19T20:47:39;14.15;;;3.08;;
19848;SDS011;10085;51.120;6.956;2023-11-19T20:57:44;10.45;;;3.30;;
19848;SDS011;10085;51.120;6.956;2023-11-19T21:07:47;17.48;;;2.95;;
19848;SDS011;10085;51.120;6.956;2023-11-19T21:17:52;5.40;;;2.13;;
19848;SDS011;10085;51.120;6.956;2023-11-19T21:27:55;11.60;;;2.70;;
19848;SDS011;10085;51.120;6.956;2023-11-19T21:37:59;12.27;;;3.33;;
19848;SDS011;10085;51.120;6.956;2023-11-19T21:48:02;11.82;;;2.97;;
19848;SDS011;10085;51.120;6.956;2023-11-19T21:58:07;12.05;;;3.60;;
19848;SDS011;10085;51.120;6.956;2023-11-19T22:08:09;10.27;;;3.35;;
19848;SDS011;10085;51.120;6.956;2023-11-19T22:23:33;15.25;;;3.55;;
19848;SDS011;10085;51.120;6.956;2023-11-19T22:33:36;14.23;;;3.80;;
19848;SDS011;10085;51.120;6.956;2023-11-19T22:43:41;16.73;;;4.07;;
19848;SDS011;10085;51.120;6.956;2023-11-19T22:53:45;10.23;;;3.00;;
19848;SDS011;10085;51.120;6.956;2023-11-19T23:03:49;14.45;;;3.75;;
19848;SDS011;10085;51.120;6.956;2023-11-19T23:13:52;15.52;;;4.00;;
19848;SDS011;10085;51.120;6.956;2023-11-19T23:23:56;19.48;;;4.18;;
19848;SDS011;10085;51.120;6.956;2023-11-19T23:33:59;10.45;;;3.45;;
19848;SDS011;10085;51.120;6.956;2023-11-19T23:44:04;10.38;;;3.63;;
19848;SDS011;10085;51.120;6.956;2023-11-19T23:54:07;16.45;;;3.70;;
